sensor_id;sensor_type;location;lat;lon;timestamp;P1;P2;P0
65360;PMS5003;51958;55.018;73.536;2024-01-25T15:32:05;26.67;22.33;13.00
65360;PMS5003;51958;55.018;73.536;2024-01-25T15:44:09;18.00;16.00;10.00
65360;PMS5003;51958;55.018;73.536;2024-01-25T16:05:15;14.00;12.50;6.00
65360;PMS5003;51958;55.018;73.536;2024-01-25T16:14:24;16.00;15.00;6.00
65360;PMS5003;51958;55.018;73.536;2024-01-25T16:20:25;16.00;13.00;6.00
65360;PMS5003;51958;55.018;73.536;2024-01-25T16:26:27;16.00;14.00;6.50
65360;PMS5003;51958;55.018;73.536;2024-01-25T16:29:37;17.00;14.00;7.00
65360;PMS5003;51958;55.018;73.536;2024-01-25T16:32:38;17.00;14.00;6.00
65360;PMS5003;51958;55.018;73.536;2024-01-25T16:38:40;16.00;14.00;6.00
65360;PMS5003;51958;55.018;73.536;2024-01-25T16:41:41;18.50;16.50;7.00
65360;PMS5003;51958;55.018;73.536;2024-01-25T16:44:43;17.50;15.00;8.00
65360;PMS5003;51958;55.018;73.536;2024-01-25T16:47:44;19.00;16.00;8.00
65360;PMS5003;51958;55.018;73.536;2024-01-25T16:50:44;18.00;14.50;6.00
65360;PMS5003;51958;55.018;73.536;2024-01-25T16:53:45;18.00;16.50;6.00
65360;PMS5003;51958;55.018;73.536;2024-01-25T17:02:50;20.50;16.50;8.00
65360;PMS5003;51958;55.018;73.536;2024-01-25T17:05:50;21.00;18.00;9.00
65360;PMS5003;51958;55.018;73.536;2024-01-25T17:08:51;21.00;18.00;8.00
65360;PMS5003;51958;55.018;73.536;2024-01-25T17:14:53;18.00;14.00;6.00
65360;PMS5003;51958;55.018;73.536;2024-01-25T17:17:55;17.00;16.00;6.00
65360;PMS5003;51958;55.018;73.536;2024-01-25T17:20:56;15.00;15.00;5.00
65360;PMS5003;51958;55.018;73.536;2024-01-25T17:26:59;14.50;14.50;6.00
65360;PMS5003;51958;55.018;73.536;2024-01-25T17:30:00;18.50;16.50;6.00
65360;PMS5003;51958;55.018;73.536;2024-01-25T17:36:01;23.00;20.00;10.00
65360;PMS5003;51958;55.018;73.536;2024-01-25T17:39:02;22.00;20.00;11.00
65360;PMS5003;51958;55.018;73.536;2024-01-25T17:42:04;19.00;18.00;11.67
65360;PMS5003;51958;55.018;73.536;2024-01-25T17:45:13;30.00;23.50;15.00
65360;PMS5003;51958;55.018;73.536;2024-01-25T17:48:14;30.00;23.50;13.00
65360;PMS5003;51958;55.018;73.536;2024-01-25T17:51:15;23.33;19.00;10.33
65360;PMS5003;51958;55.018;73.536;2024-01-25T17:54:17;17.00;15.33;7.33
65360;PMS5003;51958;55.018;73.536;2024-01-25T17:57:18;15.00;13.00;5.00
65360;PMS5003;51958;55.018;73.536;2024-01-25T18:00:19;17.00;15.00;6.00
65360;PMS5003;51958;55.018;73.536;2024-01-25T18:03:20;16.00;15.00;6.00
65360;PMS5003;51958;55.018;73.536;2024-01-25T18:06:21;16.00;15.67;6.67
65360;PMS5003;51958;55.018;73.536;2024-01-25T18:09:22;18.00;15.00;7.00
65360;PMS5003;51958;55.018;73.536;2024-01-25T18:12:24;15.00;13.00;5.00
65360;PMS5003;51958;55.018;73.536;2024-01-25T18:15:25;17.00;15.00;6.00
65360;PMS5003;51958;55.018;73.536;2024-01-25T18:18:26;17.00;15.00;6.00
65360;PMS5003;51958;55.018;73.536;2024-01-25T18:21:32;16.67;14.00;6.00
65360;PMS5003;51958;55.018;73.536;2024-01-25T18:24:33;15.00;15.00;6.00
65360;PMS5003;51958;55.018;73.536;2024-01-25T18:27:34;15.00;15.00;6.00
65360;PMS5003;51958;55.018;73.536;2024-01-25T18:30:35;16.00;15.00;5.00
65360;PMS5003;51958;55.018;73.536;2024-01-25T18:33:36;18.00;15.00;6.00
65360;PMS5003;51958;55.018;73.536;2024-01-25T18:36:37;15.00;14.00;6.00
65360;PMS5003;51958;55.018;73.536;2024-01-25T18:39:38;17.00;13.33;6.00
65360;PMS5003;51958;55.018;73.536;2024-01-25T18:42:59;15.67;13.00;4.67
65360;PMS5003;51958;55.018;73.536;2024-01-25T18:46:00;15.00;13.00;5.33
65360;PMS5003;51958;55.018;73.536;2024-01-25T18:49:04;17.00;13.00;6.00
65360;PMS5003;51958;55.018;73.536;2024-01-25T18:52:05;15.00;12.67;4.00
65360;PMS5003;51958;55.018;73.536;2024-01-25T18:55:06;13.00;13.00;5.00
65360;PMS5003;51958;55.018;73.536;2024-01-25T18:58:08;17.33;15.00;6.00
65360;PMS5003;51958;55.018;73.536;2024-01-25T19:01:09;17.33;15.00;5.00
65360;PMS5003;51958;55.018;73.536;2024-01-25T19:04:10;15.00;15.00;6.00
65360;PMS5003;51958;55.018;73.536;2024-01-25T19:07:11;17.00;15.33;6.00
65360;PMS5003;51958;55.018;73.536;2024-01-25T19:10:12;16.00;15.00;6.00
65360;PMS5003;51958;55.018;73.536;2024-01-25T19:13:13;16.00;13.00;5.67
65360;PMS5003;51958;55.018;73.536;2024-01-25T19:16:14;13.33;12.00;4.00
65360;PMS5003;51958;55.018;73.536;2024-01-25T19:19:20;15.33;13.00;6.00
65360;PMS5003;51958;55.018;73.536;2024-01-25T19:22:22;15.00;13.00;5.67
65360;PMS5003;51958;55.018;73.536;2024-01-25T19:25:23;16.00;15.00;5.67
65360;PMS5003;51958;55.018;73.536;2024-01-25T19:28:24;15.33;13.00;6.00
65360;PMS5003;51958;55.018;73.536;2024-01-25T19:31:27;18.00;16.00;8.33
65360;PMS5003;51958;55.018;73.536;2024-01-25T19:34:28;19.00;16.00;7.00
65360;PMS5003;51958;55.018;73.536;2024-01-25T19:37:29;16.50;16.00;6.00
65360;PMS5003;51958;55.018;73.536;2024-01-25T19:40:30;18.67;15.33;6.00
65360;PMS5003;51958;55.018;73.536;2024-01-25T19:43:31;18.00;16.00;7.00
65360;PMS5003;51958;55.018;73.536;2024-01-25T19:46:32;18.00;17.00;9.00
65360;PMS5003;51958;55.018;73.536;2024-01-25T19:49:33;18.00;16.00;9.00
65360;PMS5003;51958;55.018;73.536;2024-01-25T19:52:34;18.00;15.00;9.00
65360;PMS5003;51958;55.018;73.536;2024-01-25T19:55:35;18.00;15.50;8.00
65360;PMS5003;51958;55.018;73.536;2024-01-25T19:58:36;16.00;15.00;6.00
65360;PMS5003;51958;55.018;73.536;2024-01-25T20:01:38;16.00;14.00;6.00
65360;PMS5003;51958;55.018;73.536;2024-01-25T20:04:40;18.33;15.00;7.33
65360;PMS5003;51958;55.018;73.536;2024-01-25T20:07:42;21.00;15.00;8.00
65360;PMS5003;51958;55.018;73.536;2024-01-25T20:10:43;23.00;20.00;12.00
65360;PMS5003;51958;55.018;73.536;2024-01-25T20:13:44;27.50;22.50;13.50
65360;PMS5003;51958;55.018;73.536;2024-01-25T20:16:45;28.00;21.00;13.00
65360;PMS5003;51958;55.018;73.536;2024-01-25T20:19:46;26.50;20.50;13.50
65360;PMS5003;51958;55.018;73.536;2024-01-25T20:22:47;24.00;20.50;13.00
65360;PMS5003;51958;55.018;73.536;2024-01-25T20:25:48;26.00;22.00;13.00
65360;PMS5003;51958;55.018;73.536;2024-01-25T20:28:49;25.00;20.00;13.00
65360;PMS5003;51958;55.018;73.536;2024-01-25T20:31:50;24.00;20.00;13.50
65360;PMS5003;51958;55.018;73.536;2024-01-25T20:34:51;20.50;18.00;11.00
65360;PMS5003;51958;55.018;73.536;2024-01-25T20:37:52;20.00;17.00;9.00
65360;PMS5003;51958;55.018;73.536;2024-01-25T20:40:53;19.50;16.00;8.50
65360;PMS5003;51958;55.018;73.536;2024-01-25T20:43:54;18.00;16.00;7.00
65360;PMS5003;51958;55.018;73.536;2024-01-25T20:46:55;16.00;14.50;9.00
65360;PMS5003;51958;55.018;73.536;2024-01-25T20:50:04;15.00;14.00;8.00
65360;PMS5003;51958;55.018;73.536;2024-01-25T20:53:05;15.00;14.00;7.00
65360;PMS5003;51958;55.018;73.536;2024-01-25T20:56:06;17.50;14.00;6.00
65360;PMS5003;51958;55.018;73.536;2024-01-25T20:59:07;20.00;14.00;6.00
65360;PMS5003;51958;55.018;73.536;2024-01-25T21:02:10;18.00;14.00;6.00
65360;PMS5003;51958;55.018;73.536;2024-01-25T21:05:11;16.00;14.00;6.00
65360;PMS5003;51958;55.018;73.536;2024-01-25T21:08:13;16.00;15.00;6.00
65360;PMS5003;51958;55.018;73.536;2024-01-25T21:11:14;17.50;15.50;6.00
65360;PMS5003;51958;55.018;73.536;2024-01-25T21:14:18;15.00;13.00;4.00
65360;PMS5003;51958;55.018;73.536;2024-01-25T21:17:19;18.00;14.00;6.00
65360;PMS5003;51958;55.018;73.536;2024-01-25T21:20:20;16.00;14.00;5.00
65360;PMS5003;51958;55.018;73.536;2024-01-25T21:23:21;18.00;15.00;6.00
65360;PMS5003;51958;55.018;73.536;2024-01-25T21:26:22;20.00;15.00;8.00
65360;PMS5003;51958;55.018;73.536;2024-01-25T21:29:23;19.00;15.00;6.00
65360;PMS5003;51958;55.018;73.536;2024-01-25T21:32:24;17.00;14.00;7.00
65360;PMS5003;51958;55.018;73.536;2024-01-25T21:35:25;18.50;16.00;7.00
65360;PMS5003;51958;55.018;73.536;2024-01-25T21:38:26;16.00;13.00;5.00
65360;PMS5003;51958;55.018;73.536;2024-01-25T21:41:27;16.00;13.00;6.00
65360;PMS5003;51958;55.018;73.536;2024-01-25T21:44:27;15.00;14.00;5.50
65360;PMS5003;51958;55.018;73.536;2024-01-25T21:47:28;17.00;14.00;6.00
65360;PMS5003;51958;55.018;73.536;2024-01-25T21:50:29;16.00;14.00;6.00
65360;PMS5003;51958;55.018;73.536;2024-01-25T21:53:30;17.00;14.00;6.00
65360;PMS5003;51958;55.018;73.536;2024-01-25T21:56:31;15.00;13.00;5.00
65360;PMS5003;51958;55.018;73.536;2024-01-25T21:59:41;15.50;13.00;6.00
65360;PMS5003;51958;55.018;73.536;2024-01-25T22:02:42;15.50;13.00;5.50
65360;PMS5003;51958;55.018;73.536;2024-01-25T22:05:43;15.00;13.00;4.00
65360;PMS5003;51958;55.018;73.536;2024-01-25T22:08:44;13.00;10.50;4.00
65360;PMS5003;51958;55.018;73.536;2024-01-25T22:11:45;12.00;11.00;4.00
65360;PMS5003;51958;55.018;73.536;2024-01-25T22:14:46;14.00;12.00;5.00
65360;PMS5003;51958;55.018;73.536;2024-01-25T22:17:47;12.50;11.00;4.00
65360;PMS5003;51958;55.018;73.536;2024-01-25T22:20:48;15.00;12.00;4.00
65360;PMS5003;51958;55.018;73.536;2024-01-25T22:23:49;14.00;13.00;4.00
65360;PMS5003;51958;55.018;73.536;2024-01-25T22:26:50;14.00;11.00;4.00
65360;PMS5003;51958;55.018;73.536;2024-01-25T22:29:51;14.00;11.00;4.00
65360;PMS5003;51958;55.018;73.536;2024-01-25T22:32:52;14.67;11.67;5.00
65360;PMS5003;51958;55.018;73.536;2024-01-25T22:35:53;13.00;11.00;3.00
65360;PMS5003;51958;55.018;73.536;2024-01-25T22:38:54;13.00;10.00;4.00
65360;PMS5003;51958;55.018;73.536;2024-01-25T22:41:55;11.50;11.00;4.00
65360;PMS5003;51958;55.018;73.536;2024-01-25T22:44:56;12.00;11.00;4.00
65360;PMS5003;51958;55.018;73.536;2024-01-25T22:47:57;13.33;11.00;3.00
65360;PMS5003;51958;55.018;73.536;2024-01-25T22:50:58;12.00;10.00;3.00
65360;PMS5003;51958;55.018;73.536;2024-01-25T22:54:14;11.00;8.00;4.00
65360;PMS5003;51958;55.018;73.536;2024-01-25T22:57:15;12.00;9.00;4.00
65360;PMS5003;51958;55.018;73.536;2024-01-25T23:00:17;12.00;9.00;4.00
65360;PMS5003;51958;55.018;73.536;2024-01-25T23:03:24;14.00;11.00;4.00
65360;PMS5003;51958;55.018;73.536;2024-01-25T23:06:25;15.67;12.00;4.00
65360;PMS5003;51958;55.018;73.536;2024-01-25T23:09:26;13.00;11.00;4.00
65360;PMS5003;51958;55.018;73.536;2024-01-25T23:12:39;11.00;7.00;3.00
65360;PMS5003;51958;55.018;73.536;2024-01-25T23:15:40;13.00;7.00;3.33
65360;PMS5003;51958;55.018;73.536;2024-01-25T23:18:41;14.00;8.33;4.00
65360;PMS5003;51958;55.018;73.536;2024-01-25T23:21:42;14.00;10.00;4.00
65360;PMS5003;51958;55.018;73.536;2024-01-25T23:24:43;13.00;10.00;4.00
65360;PMS5003;51958;55.018;73.536;2024-01-25T23:27:57;13.00;10.67;4.00
65360;PMS5003;51958;55.018;73.536;2024-01-25T23:30:58;12.00;11.00;4.00
65360;PMS5003;51958;55.018;73.536;2024-01-25T23:33:58;11.00;9.33;3.00
65360;PMS5003;51958;55.018;73.536;2024-01-25T23:37:00;9.00;8.00;3.00
65360;PMS5003;51958;55.018;73.536;2024-01-25T23:40:01;11.00;8.00;3.00
65360;PMS5003;51958;55.018;73.536;2024-01-25T23:43:03;9.33;6.33;3.33
65360;PMS5003;51958;55.018;73.536;2024-01-25T23:46:04;9.00;7.00;3.00
65360;PMS5003;51958;55.018;73.536;2024-01-25T23:49:05;6.33;5.67;2.67
65360;PMS5003;51958;55.018;73.536;2024-01-25T23:52:06;8.67;6.00;3.00
65360;PMS5003;51958;55.018;73.536;2024-01-25T23:55:07;9.00;6.33;2.00
65360;PMS5003;51958;55.018;73.536;2024-01-25T23:58:09;9.00;7.00;3.00
